sensor_id;sensor_type;location;lat;lon;timestamp;P1;durP1;ratioP1;P2;durP2;ratioP2
71836;SDS011;59686;51.716;7.016;2024-03-23T00:53:37;8.27;;;3.55;;
71836;SDS011;59686;51.716;7.016;2024-03-23T00:56:04;11.60;;;3.35;;
71836;SDS011;59686;51.716;7.016;2024-03-23T00:58:30;9.52;;;3.42;;
71836;SDS011;59686;51.716;7.016;2024-03-23T01:00:55;10.40;;;3.78;;
71836;SDS011;59686;51.716;7.016;2024-03-23T01:03:21;9.35;;;3.33;;
71836;SDS011;59686;51.716;7.016;2024-03-23T01:05:47;9.07;;;3.15;;
71836;SDS011;59686;51.716;7.016;2024-03-23T01:08:13;7.28;;;3.20;;
71836;SDS011;59686;51.716;7.016;2024-03-23T01:10:39;8.95;;;3.08;;
71836;SDS011;59686;51.716;7.016;2024-03-23T01:13:05;8.35;;;3.38;;
71836;SDS011;59686;51.716;7.016;2024-03-23T01:15:31;7.95;;;3.10;;
71836;SDS011;59686;51.716;7.016;2024-03-23T01:17:57;9.18;;;3.45;;
71836;SDS011;59686;51.716;7.016;2024-03-23T01:20:22;9.43;;;2.90;;
71836;SDS011;59686;51.716;7.016;2024-03-23T01:22:48;8.25;;;3.38;;
71836;SDS011;59686;51.716;7.016;2024-03-23T01:25:13;6.55;;;2.92;;
71836;SDS011;59686;51.716;7.016;2024-03-23T01:27:39;7.85;;;2.90;;
71836;SDS011;59686;51.716;7.016;2024-03-23T01:30:05;9.00;;;3.13;;
71836;SDS011;59686;51.716;7.016;2024-03-23T01:32:31;7.72;;;3.03;;
71836;SDS011;59686;51.716;7.016;2024-03-23T01:35:02;7.13;;;3.33;;
71836;SDS011;59686;51.716;7.016;2024-03-23T01:37:29;6.93;;;3.17;;
71836;SDS011;59686;51.716;7.016;2024-03-23T01:39:54;10.25;;;2.90;;
71836;SDS011;59686;51.716;7.016;2024-03-23T01:42:20;6.53;;;2.85;;
71836;SDS011;59686;51.716;7.016;2024-03-23T01:44:46;9.82;;;2.97;;
71836;SDS011;59686;51.716;7.016;2024-03-23T01:47:11;8.82;;;3.05;;
71836;SDS011;59686;51.716;7.016;2024-03-23T01:49:37;8.27;;;2.88;;
71836;SDS011;59686;51.716;7.016;2024-03-23T01:52:03;5.70;;;2.65;;
71836;SDS011;59686;51.716;7.016;2024-03-23T01:54:29;5.65;;;2.67;;
71836;SDS011;59686;51.716;7.016;2024-03-23T01:56:54;7.85;;;3.00;;
71836;SDS011;59686;51.716;7.016;2024-03-23T01:59:21;7.65;;;3.10;;
71836;SDS011;59686;51.716;7.016;2024-03-23T02:01:47;6.80;;;2.80;;
71836;SDS011;59686;51.716;7.016;2024-03-23T02:04:12;6.25;;;2.90;;
71836;SDS011;59686;51.716;7.016;2024-03-23T02:06:38;6.60;;;2.70;;
71836;SDS011;59686;51.716;7.016;2024-03-23T02:09:05;5.30;;;2.15;;
71836;SDS011;59686;51.716;7.016;2024-03-23T02:11:31;6.63;;;2.55;;
71836;SDS011;59686;51.716;7.016;2024-03-23T02:13:56;9.85;;;3.20;;
71836;SDS011;59686;51.716;7.016;2024-03-23T02:16:23;11.05;;;3.05;;
71836;SDS011;59686;51.716;7.016;2024-03-23T02:18:49;4.90;;;2.60;;
71836;SDS011;59686;51.716;7.016;2024-03-23T02:21:15;8.68;;;3.00;;
71836;SDS011;59686;51.716;7.016;2024-03-23T02:23:40;6.88;;;2.90;;
71836;SDS011;59686;51.716;7.016;2024-03-23T02:26:06;8.45;;;2.78;;
71836;SDS011;59686;51.716;7.016;2024-03-23T02:28:32;7.78;;;3.15;;
71836;SDS011;59686;51.716;7.016;2024-03-23T02:30:57;6.28;;;2.78;;
71836;SDS011;59686;51.716;7.016;2024-03-23T02:33:31;9.52;;;2.70;;
71836;SDS011;59686;51.716;7.016;2024-03-23T02:35:59;5.23;;;2.43;;
71836;SDS011;59686;51.716;7.016;2024-03-23T02:38:24;8.50;;;2.67;;
71836;SDS011;59686;51.716;7.016;2024-03-23T02:40:50;5.95;;;2.50;;
71836;SDS011;59686;51.716;7.016;2024-03-23T02:43:16;8.32;;;3.08;;
71836;SDS011;59686;51.716;7.016;2024-03-23T02:45:41;5.35;;;2.58;;
71836;SDS011;59686;51.716;7.016;2024-03-23T02:48:07;6.13;;;2.35;;
71836;SDS011;59686;51.716;7.016;2024-03-23T02:50:36;6.55;;;2.38;;
71836;SDS011;59686;51.716;7.016;2024-03-23T02:53:02;5.95;;;2.50;;
71836;SDS011;59686;51.716;7.016;2024-03-23T02:55:27;9.55;;;2.72;;
71836;SDS011;59686;51.716;7.016;2024-03-23T02:57:53;4.75;;;2.42;;
71836;SDS011;59686;51.716;7.016;2024-03-23T03:00:19;5.85;;;2.35;;
71836;SDS011;59686;51.716;7.016;2024-03-23T03:02:45;4.18;;;2.22;;
71836;SDS011;59686;51.716;7.016;2024-03-23T03:05:11;8.93;;;2.97;;
71836;SDS011;59686;51.716;7.016;2024-03-23T03:07:39;3.63;;;2.38;;
71836;SDS011;59686;51.716;7.016;2024-03-23T03:10:06;6.95;;;2.38;;
71836;SDS011;59686;51.716;7.016;2024-03-23T03:12:33;6.72;;;2.67;;
71836;SDS011;59686;51.716;7.016;2024-03-23T03:14:59;6.80;;;2.47;;
71836;SDS011;59686;51.716;7.016;2024-03-23T03:17:26;5.68;;;2.17;;
71836;SDS011;59686;51.716;7.016;2024-03-23T03:19:51;6.43;;;1.75;;
71836;SDS011;59686;51.716;7.016;2024-03-23T03:22:20;5.43;;;2.22;;
71836;SDS011;59686;51.716;7.016;2024-03-23T03:24:47;7.88;;;2.28;;
71836;SDS011;59686;51.716;7.016;2024-03-23T03:27:13;7.50;;;2.67;;
71836;SDS011;59686;51.716;7.016;2024-03-23T03:29:38;4.40;;;2.17;;
71836;SDS011;59686;51.716;7.016;2024-03-23T03:32:04;6.38;;;1.90;;
71836;SDS011;59686;51.716;7.016;2024-03-23T03:34:31;5.82;;;2.30;;
71836;SDS011;59686;51.716;7.016;2024-03-23T03:36:57;7.22;;;2.35;;
71836;SDS011;59686;51.716;7.016;2024-03-23T03:39:23;5.65;;;2.33;;
71836;SDS011;59686;51.716;7.016;2024-03-23T03:41:49;5.82;;;1.92;;
71836;SDS011;59686;51.716;7.016;2024-03-23T03:44:15;7.25;;;2.30;;
71836;SDS011;59686;51.716;7.016;2024-03-23T03:46:41;4.55;;;2.33;;
71836;SDS011;59686;51.716;7.016;2024-03-23T03:49:07;4.38;;;2.53;;
71836;SDS011;59686;51.716;7.016;2024-03-23T03:51:33;5.03;;;1.92;;
71836;SDS011;59686;51.716;7.016;2024-03-23T03:53:59;5.53;;;2.28;;
71836;SDS011;59686;51.716;7.016;2024-03-23T03:56:25;4.82;;;2.35;;
71836;SDS011;59686;51.716;7.016;2024-03-23T03:58:50;6.40;;;2.05;;
71836;SDS011;59686;51.716;7.016;2024-03-23T04:01:17;5.18;;;2.13;;
71836;SDS011;59686;51.716;7.016;2024-03-23T04:03:43;5.13;;;2.00;;
71836;SDS011;59686;51.716;7.016;2024-03-23T04:06:12;3.90;;;1.80;;
71836;SDS011;59686;51.716;7.016;2024-03-23T04:08:43;4.53;;;1.55;;
71836;SDS011;59686;51.716;7.016;2024-03-23T04:11:09;5.27;;;1.87;;
71836;SDS011;59686;51.716;7.016;2024-03-23T04:13:41;4.70;;;2.30;;
71836;SDS011;59686;51.716;7.016;2024-03-23T04:16:07;7.47;;;2.30;;
71836;SDS011;59686;51.716;7.016;2024-03-23T04:18:34;5.85;;;2.15;;
71836;SDS011;59686;51.716;7.016;2024-03-23T04:21:00;3.75;;;2.05;;
71836;SDS011;59686;51.716;7.016;2024-03-23T04:23:26;6.85;;;2.05;;
71836;SDS011;59686;51.716;7.016;2024-03-23T04:25:51;4.45;;;1.98;;
71836;SDS011;59686;51.716;7.016;2024-03-23T04:28:23;5.50;;;2.05;;
71836;SDS011;59686;51.716;7.016;2024-03-23T04:30:49;5.47;;;1.92;;
71836;SDS011;59686;51.716;7.016;2024-03-23T04:33:15;6.43;;;2.10;;
71836;SDS011;59686;51.716;7.016;2024-03-23T04:35:40;6.15;;;1.90;;
71836;SDS011;59686;51.716;7.016;2024-03-23T04:38:06;6.63;;;2.47;;
71836;SDS011;59686;51.716;7.016;2024-03-23T04:40:32;4.63;;;1.80;;
71836;SDS011;59686;51.716;7.016;2024-03-23T04:42:57;5.80;;;2.10;;
71836;SDS011;59686;51.716;7.016;2024-03-23T04:47:54;5.63;;;1.92;;
71836;SDS011;59686;51.716;7.016;2024-03-23T04:50:20;4.77;;;2.20;;
71836;SDS011;59686;51.716;7.016;2024-03-23T04:52:45;6.10;;;2.13;;
71836;SDS011;59686;51.716;7.016;2024-03-23T04:55:11;5.38;;;2.10;;
71836;SDS011;59686;51.716;7.016;2024-03-23T04:57:37;4.38;;;1.77;;
71836;SDS011;59686;51.716;7.016;2024-03-23T05:00:03;5.90;;;1.80;;
71836;SDS011;59686;51.716;7.016;2024-03-23T05:05:08;5.05;;;2.13;;
71836;SDS011;59686;51.716;7.016;2024-03-23T05:07:34;6.53;;;2.03;;
71836;SDS011;59686;51.716;7.016;2024-03-23T05:09:59;6.45;;;2.05;;
71836;SDS011;59686;51.716;7.016;2024-03-23T05:12:25;7.73;;;2.40;;
71836;SDS011;59686;51.716;7.016;2024-03-23T05:14:50;7.15;;;2.22;;
71836;SDS011;59686;51.716;7.016;2024-03-23T05:17:16;7.90;;;2.20;;
71836;SDS011;59686;51.716;7.016;2024-03-23T05:19:42;5.30;;;2.30;;
71836;SDS011;59686;51.716;7.016;2024-03-23T05:22:09;7.97;;;2.03;;
71836;SDS011;59686;51.716;7.016;2024-03-23T05:24:35;4.70;;;2.20;;
71836;SDS011;59686;51.716;7.016;2024-03-23T05:27:00;6.33;;;2.50;;
71836;SDS011;59686;51.716;7.016;2024-03-23T05:29:26;4.73;;;2.13;;
71836;SDS011;59686;51.716;7.016;2024-03-23T05:31:52;7.27;;;2.50;;
71836;SDS011;59686;51.716;7.016;2024-03-23T05:34:18;7.15;;;2.13;;
71836;SDS011;59686;51.716;7.016;2024-03-23T05:36:43;7.33;;;2.50;;
71836;SDS011;59686;51.716;7.016;2024-03-23T05:39:11;5.82;;;2.10;;
71836;SDS011;59686;51.716;7.016;2024-03-23T05:41:37;7.18;;;2.85;;
71836;SDS011;59686;51.716;7.016;2024-03-23T05:44:03;6.03;;;2.38;;
71836;SDS011;59686;51.716;7.016;2024-03-23T05:46:28;6.87;;;3.00;;
71836;SDS011;59686;51.716;7.016;2024-03-23T05:48:54;6.53;;;3.00;;
71836;SDS011;59686;51.716;7.016;2024-03-23T05:51:26;6.70;;;2.70;;
71836;SDS011;59686;51.716;7.016;2024-03-23T05:53:52;8.35;;;2.80;;
71836;SDS011;59686;51.716;7.016;2024-03-23T05:56:19;5.68;;;2.75;;
71836;SDS011;59686;51.716;7.016;2024-03-23T05:58:45;4.78;;;2.47;;
71836;SDS011;59686;51.716;7.016;2024-03-23T06:01:11;5.38;;;2.83;;
71836;SDS011;59686;51.716;7.016;2024-03-23T06:03:38;5.97;;;2.90;;
71836;SDS011;59686;51.716;7.016;2024-03-23T06:06:03;5.55;;;2.80;;
71836;SDS011;59686;51.716;7.016;2024-03-23T06:10:58;5.67;;;2.80;;
71836;SDS011;59686;51.716;7.016;2024-03-23T06:13:23;6.17;;;3.10;;
71836;SDS011;59686;51.716;7.016;2024-03-23T06:15:54;6.33;;;2.83;;
71836;SDS011;59686;51.716;7.016;2024-03-23T06:18:20;7.22;;;3.00;;
71836;SDS011;59686;51.716;7.016;2024-03-23T06:20:46;7.30;;;3.30;;
71836;SDS011;59686;51.716;7.016;2024-03-23T06:23:24;6.80;;;2.97;;
71836;SDS011;59686;51.716;7.016;2024-03-23T06:25:49;7.57;;;3.70;;
71836;SDS011;59686;51.716;7.016;2024-03-23T06:28:15;7.97;;;3.53;;
71836;SDS011;59686;51.716;7.016;2024-03-23T06:30:41;9.33;;;3.20;;
71836;SDS011;59686;51.716;7.016;2024-03-23T06:33:06;6.30;;;2.87;;
71836;SDS011;59686;51.716;7.016;2024-03-23T06:35:33;8.95;;;3.55;;
71836;SDS011;59686;51.716;7.016;2024-03-23T06:37:59;8.25;;;3.15;;
71836;SDS011;59686;51.716;7.016;2024-03-23T06:40:24;10.23;;;3.77;;
71836;SDS011;59686;51.716;7.016;2024-03-23T06:42:50;9.53;;;3.23;;
71836;SDS011;59686;51.716;7.016;2024-03-23T06:45:16;9.10;;;3.80;;
71836;SDS011;59686;51.716;7.016;2024-03-23T06:47:48;9.43;;;3.80;;
71836;SDS011;59686;51.716;7.016;2024-03-23T06:50:14;9.97;;;3.70;;
71836;SDS011;59686;51.716;7.016;2024-03-23T06:52:40;12.03;;;3.60;;
71836;SDS011;59686;51.716;7.016;2024-03-23T06:55:06;6.53;;;3.57;;
71836;SDS011;59686;51.716;7.016;2024-03-23T06:57:32;10.37;;;3.70;;
71836;SDS011;59686;51.716;7.016;2024-03-23T06:59:57;8.47;;;3.60;;
71836;SDS011;59686;51.716;7.016;2024-03-23T07:02:23;7.67;;;4.03;;
71836;SDS011;59686;51.716;7.016;2024-03-23T07:04:49;9.43;;;3.77;;
71836;SDS011;59686;51.716;7.016;2024-03-23T07:07:14;7.27;;;3.67;;
71836;SDS011;59686;51.716;7.016;2024-03-23T07:09:40;8.13;;;4.20;;
71836;SDS011;59686;51.716;7.016;2024-03-23T07:12:06;10.50;;;4.30;;
71836;SDS011;59686;51.716;7.016;2024-03-23T07:14:32;8.43;;;3.57;;
71836;SDS011;59686;51.716;7.016;2024-03-23T07:16:57;9.83;;;4.07;;
71836;SDS011;59686;51.716;7.016;2024-03-23T07:19:23;10.60;;;4.20;;
71836;SDS011;59686;51.716;7.016;2024-03-23T07:21:49;9.93;;;4.03;;
71836;SDS011;59686;51.716;7.016;2024-03-23T07:24:15;8.67;;;3.20;;
71836;SDS011;59686;51.716;7.016;2024-03-23T07:26:41;8.20;;;3.60;;
71836;SDS011;59686;51.716;7.016;2024-03-23T07:29:06;8.90;;;3.73;;
71836;SDS011;59686;51.716;7.016;2024-03-23T07:31:32;10.10;;;3.70;;
71836;SDS011;59686;51.716;7.016;2024-03-23T07:33:58;9.10;;;3.50;;
71836;SDS011;59686;51.716;7.016;2024-03-23T07:36:24;8.23;;;4.17;;
71836;SDS011;59686;51.716;7.016;2024-03-23T07:38:50;11.27;;;3.90;;
71836;SDS011;59686;51.716;7.016;2024-03-23T07:41:16;10.23;;;4.07;;
71836;SDS011;59686;51.716;7.016;2024-03-23T07:43:46;7.77;;;3.60;;
71836;SDS011;59686;51.716;7.016;2024-03-23T07:46:15;7.20;;;3.23;;
71836;SDS011;59686;51.716;7.016;2024-03-23T07:48:41;8.60;;;3.40;;
71836;SDS011;59686;51.716;7.016;2024-03-23T07:51:11;11.10;;;3.67;;
71836;SDS011;59686;51.716;7.016;2024-03-23T07:53:42;10.10;;;3.40;;
71836;SDS011;59686;51.716;7.016;2024-03-23T07:56:09;8.40;;;3.50;;
71836;SDS011;59686;51.716;7.016;2024-03-23T07:58:35;9.63;;;3.70;;
71836;SDS011;59686;51.716;7.016;2024-03-23T08:01:05;10.47;;;3.20;;
71836;SDS011;59686;51.716;7.016;2024-03-23T08:03:36;10.47;;;3.70;;
71836;SDS011;59686;51.716;7.016;2024-03-23T08:06:19;10.83;;;3.50;;
71836;SDS011;59686;51.716;7.016;2024-03-23T08:08:46;8.40;;;3.23;;
71836;SDS011;59686;51.716;7.016;2024-03-23T08:11:12;10.30;;;3.67;;
71836;SDS011;59686;51.716;7.016;2024-03-23T08:13:39;6.80;;;2.97;;
71836;SDS011;59686;51.716;7.016;2024-03-23T08:16:06;6.90;;;2.70;;
71836;SDS011;59686;51.716;7.016;2024-03-23T08:18:32;10.10;;;3.37;;
71836;SDS011;59686;51.716;7.016;2024-03-23T08:20:58;7.37;;;3.20;;
71836;SDS011;59686;51.716;7.016;2024-03-23T08:23:25;11.87;;;3.83;;
71836;SDS011;59686;51.716;7.016;2024-03-23T08:25:58;5.90;;;2.70;;
71836;SDS011;59686;51.716;7.016;2024-03-23T08:28:30;11.07;;;3.30;;
71836;SDS011;59686;51.716;7.016;2024-03-23T08:30:56;11.63;;;3.60;;
71836;SDS011;59686;51.716;7.016;2024-03-23T08:33:22;7.93;;;3.30;;
71836;SDS011;59686;51.716;7.016;2024-03-23T08:38:21;12.63;;;3.00;;
71836;SDS011;59686;51.716;7.016;2024-03-23T08:40:47;8.57;;;3.70;;
71836;SDS011;59686;51.716;7.016;2024-03-23T08:43:12;9.33;;;3.67;;
71836;SDS011;59686;51.716;7.016;2024-03-23T08:45:38;11.20;;;3.57;;
71836;SDS011;59686;51.716;7.016;2024-03-23T08:48:04;7.13;;;3.50;;
71836;SDS011;59686;51.716;7.016;2024-03-23T08:50:30;9.43;;;3.53;;
71836;SDS011;59686;51.716;7.016;2024-03-23T08:52:55;9.40;;;4.00;;
71836;SDS011;59686;51.716;7.016;2024-03-23T08:55:21;9.83;;;4.10;;
71836;SDS011;59686;51.716;7.016;2024-03-23T08:57:47;12.97;;;4.57;;
71836;SDS011;59686;51.716;7.016;2024-03-23T09:00:13;11.77;;;4.43;;
71836;SDS011;59686;51.716;7.016;2024-03-23T09:02:39;11.63;;;4.03;;
71836;SDS011;59686;51.716;7.016;2024-03-23T09:05:05;12.53;;;4.20;;
71836;SDS011;59686;51.716;7.016;2024-03-23T09:07:31;11.27;;;4.57;;
71836;SDS011;59686;51.716;7.016;2024-03-23T09:09:57;11.93;;;3.87;;
71836;SDS011;59686;51.716;7.016;2024-03-23T09:12:22;11.00;;;3.90;;
71836;SDS011;59686;51.716;7.016;2024-03-23T09:14:49;12.67;;;4.17;;
71836;SDS011;59686;51.716;7.016;2024-03-23T09:17:15;11.40;;;3.83;;
71836;SDS011;59686;51.716;7.016;2024-03-23T09:19:41;8.67;;;3.80;;
71836;SDS011;59686;51.716;7.016;2024-03-23T09:22:06;7.90;;;3.37;;
71836;SDS011;59686;51.716;7.016;2024-03-23T09:24:32;9.83;;;3.87;;
71836;SDS011;59686;51.716;7.016;2024-03-23T09:26:58;10.33;;;3.47;;
71836;SDS011;59686;51.716;7.016;2024-03-23T09:29:23;10.57;;;3.60;;
71836;SDS011;59686;51.716;7.016;2024-03-23T09:31:49;9.57;;;3.30;;
71836;SDS011;59686;51.716;7.016;2024-03-23T09:34:15;8.60;;;3.53;;
71836;SDS011;59686;51.716;7.016;2024-03-23T09:36:41;9.13;;;3.10;;
71836;SDS011;59686;51.716;7.016;2024-03-23T09:39:06;8.67;;;3.20;;
71836;SDS011;59686;51.716;7.016;2024-03-23T09:41:34;7.07;;;2.90;;
71836;SDS011;59686;51.716;7.016;2024-03-23T09:44:01;8.07;;;3.00;;
71836;SDS011;59686;51.716;7.016;2024-03-23T09:46:27;6.43;;;2.40;;
71836;SDS011;59686;51.716;7.016;2024-03-23T09:48:54;6.67;;;2.77;;
71836;SDS011;59686;51.716;7.016;2024-03-23T09:51:21;7.13;;;2.80;;
71836;SDS011;59686;51.716;7.016;2024-03-23T09:53:49;8.27;;;2.73;;
71836;SDS011;59686;51.716;7.016;2024-03-23T09:56:16;6.57;;;2.30;;
71836;SDS011;59686;51.716;7.016;2024-03-23T09:58:42;6.00;;;2.50;;
71836;SDS011;59686;51.716;7.016;2024-03-23T10:01:09;8.53;;;2.23;;
71836;SDS011;59686;51.716;7.016;2024-03-23T10:03:44;7.07;;;2.50;;
71836;SDS011;59686;51.716;7.016;2024-03-23T10:06:11;6.77;;;2.90;;
71836;SDS011;59686;51.716;7.016;2024-03-23T10:08:37;6.50;;;2.27;;
71836;SDS011;59686;51.716;7.016;2024-03-23T10:11:12;6.10;;;2.07;;
71836;SDS011;59686;51.716;7.016;2024-03-23T10:13:41;8.23;;;2.00;;
71836;SDS011;59686;51.716;7.016;2024-03-23T10:16:08;8.90;;;2.23;;
71836;SDS011;59686;51.716;7.016;2024-03-23T10:18:40;6.10;;;1.90;;
71836;SDS011;59686;51.716;7.016;2024-03-23T10:23:35;6.30;;;2.37;;
71836;SDS011;59686;51.716;7.016;2024-03-23T10:29:05;5.40;;;2.10;;
71836;SDS011;59686;51.716;7.016;2024-03-23T10:31:39;7.70;;;2.13;;
71836;SDS011;59686;51.716;7.016;2024-03-23T10:34:07;3.13;;;1.70;;
71836;SDS011;59686;51.716;7.016;2024-03-23T10:36:33;4.87;;;1.87;;
71836;SDS011;59686;51.716;7.016;2024-03-23T10:39:03;8.90;;;2.10;;
71836;SDS011;59686;51.716;7.016;2024-03-23T10:41:32;9.43;;;2.20;;
71836;SDS011;59686;51.716;7.016;2024-03-23T10:43:58;8.23;;;2.10;;
71836;SDS011;59686;51.716;7.016;2024-03-23T10:46:26;8.17;;;2.07;;
71836;SDS011;59686;51.716;7.016;2024-03-23T10:48:52;6.00;;;1.70;;
71836;SDS011;59686;51.716;7.016;2024-03-23T10:51:30;5.97;;;1.90;;
71836;SDS011;59686;51.716;7.016;2024-03-23T10:53:57;8.10;;;1.50;;
71836;SDS011;59686;51.716;7.016;2024-03-23T10:56:25;4.57;;;1.70;;
71836;SDS011;59686;51.716;7.016;2024-03-23T10:58:54;4.40;;;1.60;;
71836;SDS011;59686;51.716;7.016;2024-03-23T11:01:20;5.10;;;1.53;;
71836;SDS011;59686;51.716;7.016;2024-03-23T11:03:57;6.17;;;1.67;;
71836;SDS011;59686;51.716;7.016;2024-03-23T11:06:36;8.90;;;2.00;;
71836;SDS011;59686;51.716;7.016;2024-03-23T11:09:03;5.53;;;2.03;;
71836;SDS011;59686;51.716;7.016;2024-03-23T11:11:29;6.57;;;1.90;;
71836;SDS011;59686;51.716;7.016;2024-03-23T11:13:57;4.43;;;1.50;;
71836;SDS011;59686;51.716;7.016;2024-03-23T11:16:29;3.47;;;1.33;;
71836;SDS011;59686;51.716;7.016;2024-03-23T11:22:00;4.20;;;1.70;;
71836;SDS011;59686;51.716;7.016;2024-03-23T11:24:27;2.47;;;1.33;;
71836;SDS011;59686;51.716;7.016;2024-03-23T11:26:52;4.80;;;1.40;;
71836;SDS011;59686;51.716;7.016;2024-03-23T11:29:18;3.30;;;1.40;;
71836;SDS011;59686;51.716;7.016;2024-03-23T11:31:51;3.77;;;1.50;;
71836;SDS011;59686;51.716;7.016;2024-03-23T11:34:21;4.27;;;1.30;;
71836;SDS011;59686;51.716;7.016;2024-03-23T11:36:47;3.13;;;1.30;;
71836;SDS011;59686;51.716;7.016;2024-03-23T11:39:15;5.20;;;1.40;;
71836;SDS011;59686;51.716;7.016;2024-03-23T11:41:46;4.47;;;1.30;;
71836;SDS011;59686;51.716;7.016;2024-03-23T11:44:20;4.07;;;1.60;;
71836;SDS011;59686;51.716;7.016;2024-03-23T11:46:50;3.00;;;1.20;;
71836;SDS011;59686;51.716;7.016;2024-03-23T11:49:20;5.70;;;1.27;;
71836;SDS011;59686;51.716;7.016;2024-03-23T11:51:53;4.97;;;1.30;;
71836;SDS011;59686;51.716;7.016;2024-03-23T11:54:30;4.47;;;1.97;;
71836;SDS011;59686;51.716;7.016;2024-03-23T11:56:59;5.83;;;2.17;;
71836;SDS011;59686;51.716;7.016;2024-03-23T11:59:33;3.27;;;1.40;;
71836;SDS011;59686;51.716;7.016;2024-03-23T12:02:12;4.43;;;1.50;;
71836;SDS011;59686;51.716;7.016;2024-03-23T12:04:41;6.53;;;1.77;;
71836;SDS011;59686;51.716;7.016;2024-03-23T12:07:17;3.67;;;1.53;;
71836;SDS011;59686;51.716;7.016;2024-03-23T12:09:44;3.50;;;1.43;;
71836;SDS011;59686;51.716;7.016;2024-03-23T12:12:14;4.13;;;1.33;;
71836;SDS011;59686;51.716;7.016;2024-03-23T12:14:45;4.30;;;1.70;;
71836;SDS011;59686;51.716;7.016;2024-03-23T12:17:27;4.70;;;1.70;;
71836;SDS011;59686;51.716;7.016;2024-03-23T12:19:52;5.03;;;1.77;;
71836;SDS011;59686;51.716;7.016;2024-03-23T12:22:21;6.50;;;1.63;;
71836;SDS011;59686;51.716;7.016;2024-03-23T12:24:48;4.53;;;1.63;;
71836;SDS011;59686;51.716;7.016;2024-03-23T12:27:14;5.03;;;2.20;;
71836;SDS011;59686;51.716;7.016;2024-03-23T12:29:40;8.60;;;2.10;;
71836;SDS011;59686;51.716;7.016;2024-03-23T12:32:13;6.23;;;1.90;;
71836;SDS011;59686;51.716;7.016;2024-03-23T12:34:39;7.40;;;1.80;;
71836;SDS011;59686;51.716;7.016;2024-03-23T12:37:06;5.17;;;1.80;;
71836;SDS011;59686;51.716;7.016;2024-03-23T12:39:32;3.47;;;1.77;;
71836;SDS011;59686;51.716;7.016;2024-03-23T12:42:00;3.43;;;1.70;;
71836;SDS011;59686;51.716;7.016;2024-03-23T12:44:26;5.18;;;1.70;;
71836;SDS011;59686;51.716;7.016;2024-03-23T12:46:52;5.43;;;1.98;;
71836;SDS011;59686;51.716;7.016;2024-03-23T12:49:18;5.25;;;1.90;;
71836;SDS011;59686;51.716;7.016;2024-03-23T12:51:46;6.47;;;1.80;;
71836;SDS011;59686;51.716;7.016;2024-03-23T12:54:22;6.03;;;2.07;;
71836;SDS011;59686;51.716;7.016;2024-03-23T12:56:49;4.97;;;2.10;;
71836;SDS011;59686;51.716;7.016;2024-03-23T12:59:15;4.77;;;2.00;;
71836;SDS011;59686;51.716;7.016;2024-03-23T13:01:41;8.97;;;2.00;;
71836;SDS011;59686;51.716;7.016;2024-03-23T13:04:08;4.90;;;1.80;;
71836;SDS011;59686;51.716;7.016;2024-03-23T13:06:34;9.17;;;2.57;;
71836;SDS011;59686;51.716;7.016;2024-03-23T13:09:01;4.80;;;1.70;;
71836;SDS011;59686;51.716;7.016;2024-03-23T13:11:28;2.90;;;1.80;;
71836;SDS011;59686;51.716;7.016;2024-03-23T13:13:56;4.77;;;1.77;;
71836;SDS011;59686;51.716;7.016;2024-03-23T13:16:21;6.60;;;1.70;;
71836;SDS011;59686;51.716;7.016;2024-03-23T13:18:47;7.27;;;1.93;;
71836;SDS011;59686;51.716;7.016;2024-03-23T13:21:13;4.53;;;1.30;;
71836;SDS011;59686;51.716;7.016;2024-03-23T13:23:39;3.40;;;1.27;;
71836;SDS011;59686;51.716;7.016;2024-03-23T13:26:07;3.30;;;1.50;;
71836;SDS011;59686;51.716;7.016;2024-03-23T13:28:33;6.47;;;1.40;;
71836;SDS011;59686;51.716;7.016;2024-03-23T13:30:58;2.03;;;1.07;;
71836;SDS011;59686;51.716;7.016;2024-03-23T13:33:28;3.77;;;1.47;;
71836;SDS011;59686;51.716;7.016;2024-03-23T13:35:54;5.47;;;1.80;;
71836;SDS011;59686;51.716;7.016;2024-03-23T13:38:21;4.97;;;1.53;;
71836;SDS011;59686;51.716;7.016;2024-03-23T13:40:51;5.50;;;1.50;;
71836;SDS011;59686;51.716;7.016;2024-03-23T13:43:23;4.20;;;1.40;;
71836;SDS011;59686;51.716;7.016;2024-03-23T13:45:53;4.43;;;1.73;;
71836;SDS011;59686;51.716;7.016;2024-03-23T13:48:20;3.53;;;1.40;;
71836;SDS011;59686;51.716;7.016;2024-03-23T13:50:47;4.77;;;1.50;;
71836;SDS011;59686;51.716;7.016;2024-03-23T13:53:31;4.00;;;1.50;;
71836;SDS011;59686;51.716;7.016;2024-03-23T13:56:00;3.20;;;1.40;;
71836;SDS011;59686;51.716;7.016;2024-03-23T13:58:26;4.67;;;1.60;;
71836;SDS011;59686;51.716;7.016;2024-03-23T14:03:24;5.40;;;1.83;;
71836;SDS011;59686;51.716;7.016;2024-03-23T14:05:49;3.63;;;1.40;;
71836;SDS011;59686;51.716;7.016;2024-03-23T14:08:17;5.67;;;1.83;;
71836;SDS011;59686;51.716;7.016;2024-03-23T14:10:42;5.33;;;1.37;;
71836;SDS011;59686;51.716;7.016;2024-03-23T14:13:08;6.13;;;1.47;;
71836;SDS011;59686;51.716;7.016;2024-03-23T14:15:34;3.80;;;1.33;;
71836;SDS011;59686;51.716;7.016;2024-03-23T14:18:01;5.77;;;1.53;;
71836;SDS011;59686;51.716;7.016;2024-03-23T14:20:28;2.63;;;1.47;;
71836;SDS011;59686;51.716;7.016;2024-03-23T14:22:54;4.90;;;1.63;;
71836;SDS011;59686;51.716;7.016;2024-03-23T14:25:19;2.77;;;1.20;;
71836;SDS011;59686;51.716;7.016;2024-03-23T14:27:47;4.07;;;1.43;;
71836;SDS011;59686;51.716;7.016;2024-03-23T14:30:14;3.97;;;1.30;;
71836;SDS011;59686;51.716;7.016;2024-03-23T14:32:40;5.13;;;1.57;;
71836;SDS011;59686;51.716;7.016;2024-03-23T14:35:06;3.27;;;1.43;;
71836;SDS011;59686;51.716;7.016;2024-03-23T14:37:36;3.57;;;1.67;;
71836;SDS011;59686;51.716;7.016;2024-03-23T14:40:02;3.50;;;1.40;;
71836;SDS011;59686;51.716;7.016;2024-03-23T14:42:28;4.27;;;1.30;;
71836;SDS011;59686;51.716;7.016;2024-03-23T14:44:57;4.93;;;1.57;;
71836;SDS011;59686;51.716;7.016;2024-03-23T14:49:56;4.27;;;1.37;;
71836;SDS011;59686;51.716;7.016;2024-03-23T14:52:25;4.17;;;1.53;;
71836;SDS011;59686;51.716;7.016;2024-03-23T14:54:51;4.90;;;1.30;;
71836;SDS011;59686;51.716;7.016;2024-03-23T14:57:17;2.83;;;1.03;;
71836;SDS011;59686;51.716;7.016;2024-03-23T14:59:44;7.97;;;1.63;;
71836;SDS011;59686;51.716;7.016;2024-03-23T15:02:09;3.40;;;1.20;;
71836;SDS011;59686;51.716;7.016;2024-03-23T15:04:40;3.43;;;1.30;;
71836;SDS011;59686;51.716;7.016;2024-03-23T15:07:07;2.43;;;1.00;;
71836;SDS011;59686;51.716;7.016;2024-03-23T15:09:32;2.83;;;1.23;;
71836;SDS011;59686;51.716;7.016;2024-03-23T15:11:58;2.10;;;1.13;;
71836;SDS011;59686;51.716;7.016;2024-03-23T15:14:24;2.07;;;1.33;;
71836;SDS011;59686;51.716;7.016;2024-03-23T15:16:50;3.10;;;1.13;;
71836;SDS011;59686;51.716;7.016;2024-03-23T15:19:17;2.27;;;1.10;;
71836;SDS011;59686;51.716;7.016;2024-03-23T15:21:43;3.77;;;1.40;;
71836;SDS011;59686;51.716;7.016;2024-03-23T15:24:09;3.23;;;1.13;;
71836;SDS011;59686;51.716;7.016;2024-03-23T15:26:36;3.17;;;1.20;;
71836;SDS011;59686;51.716;7.016;2024-03-23T15:29:02;4.28;;;1.27;;
71836;SDS011;59686;51.716;7.016;2024-03-23T15:31:35;2.70;;;1.20;;
71836;SDS011;59686;51.716;7.016;2024-03-23T15:34:00;4.70;;;1.20;;
71836;SDS011;59686;51.716;7.016;2024-03-23T15:36:26;4.40;;;1.20;;
71836;SDS011;59686;51.716;7.016;2024-03-23T15:38:52;4.10;;;1.30;;
71836;SDS011;59686;51.716;7.016;2024-03-23T15:41:20;5.07;;;1.40;;
71836;SDS011;59686;51.716;7.016;2024-03-23T15:43:48;1.98;;;0.98;;
71836;SDS011;59686;51.716;7.016;2024-03-23T15:46:14;2.77;;;1.07;;
71836;SDS011;59686;51.716;7.016;2024-03-23T15:48:40;5.63;;;1.37;;
71836;SDS011;59686;51.716;7.016;2024-03-23T15:51:15;3.27;;;1.17;;
71836;SDS011;59686;51.716;7.016;2024-03-23T15:53:41;5.63;;;1.60;;
71836;SDS011;59686;51.716;7.016;2024-03-23T15:56:06;4.50;;;1.50;;
71836;SDS011;59686;51.716;7.016;2024-03-23T15:58:32;4.90;;;1.40;;
71836;SDS011;59686;51.716;7.016;2024-03-23T16:01:02;5.38;;;1.60;;